sensor_id;sensor_type;location;lat;lon;timestamp;pressure;altitude;pressure_sealevel;temperature;humidity
26859;BME280;14429;48.346;16.338;2023-08-06T00:00:26;98540.38;;;24.54;57.75
26859;BME280;14429;48.346;16.338;2023-08-06T00:02:51;98533.25;;;24.53;57.79
26859;BME280;14429;48.346;16.338;2023-08-06T00:05:18;98548.13;;;24.57;57.65
26859;BME280;14429;48.346;16.338;2023-08-06T00:07:44;98537.72;;;24.47;57.84
26859;BME280;14429;48.346;16.338;2023-08-06T00:10:09;98542.16;;;24.42;57.22
26859;BME280;14429;48.346;16.338;2023-08-06T00:12:35;98535.56;;;24.25;57.88
26859;BME280;14429;48.346;16.338;2023-08-06T00:15:00;98532.06;;;24.42;58.20
26859;BME280;14429;48.346;16.338;2023-08-06T00:17:25;98518.03;;;24.39;58.00
26859;BME280;14429;48.346;16.338;2023-08-06T00:19:51;98519.22;;;24.12;58.18
26859;BME280;14429;48.346;16.338;2023-08-06T00:22:17;98519.66;;;24.16;57.99
26859;BME280;14429;48.346;16.338;2023-08-06T00:24:43;98528.34;;;24.37;58.23
26859;BME280;14429;48.346;16.338;2023-08-06T00:27:08;98532.63;;;23.77;60.20
26859;BME280;14429;48.346;16.338;2023-08-06T00:29:34;98530.41;;;23.49;59.56
26859;BME280;14429;48.346;16.338;2023-08-06T00:31:59;98538.97;;;24.14;58.99
26859;BME280;14429;48.346;16.338;2023-08-06T00:34:25;98545.78;;;24.36;58.19
26859;BME280;14429;48.346;16.338;2023-08-06T00:36:50;98532.25;;;24.10;56.45
26859;BME280;14429;48.346;16.338;2023-08-06T00:39:17;98523.25;;;24.47;58.09
26859;BME280;14429;48.346;16.338;2023-08-06T00:41:42;98533.53;;;24.08;58.64
26859;BME280;14429;48.346;16.338;2023-08-06T00:44:07;98529.22;;;24.31;58.20
26859;BME280;14429;48.346;16.338;2023-08-06T00:46:33;98520.56;;;24.04;58.68
26859;BME280;14429;48.346;16.338;2023-08-06T00:48:59;98519.22;;;24.12;58.69
26859;BME280;14429;48.346;16.338;2023-08-06T00:51:25;98512.00;;;24.37;58.12
26859;BME280;14429;48.346;16.338;2023-08-06T00:53:52;98516.75;;;24.17;58.48
26859;BME280;14429;48.346;16.338;2023-08-06T00:56:19;98508.59;;;24.41;57.94
26859;BME280;14429;48.346;16.338;2023-08-06T00:58:45;98501.44;;;24.47;58.03
26859;BME280;14429;48.346;16.338;2023-08-06T01:01:10;98515.84;;;24.23;57.70
26859;BME280;14429;48.346;16.338;2023-08-06T01:03:36;98503.19;;;24.35;57.95
26859;BME280;14429;48.346;16.338;2023-08-06T01:06:01;98508.16;;;24.44;57.68
26859;BME280;14429;48.346;16.338;2023-08-06T01:08:37;98504.09;;;24.29;58.59
26859;BME280;14429;48.346;16.338;2023-08-06T01:11:15;98495.84;;;23.99;57.73
26859;BME280;14429;48.346;16.338;2023-08-06T01:13:47;98490.66;;;24.28;58.03
26859;BME280;14429;48.346;16.338;2023-08-06T01:16:15;98483.94;;;24.30;58.02
26859;BME280;14429;48.346;16.338;2023-08-06T01:18:41;98502.47;;;24.15;58.65
26859;BME280;14429;48.346;16.338;2023-08-06T01:21:07;98494.41;;;23.34;59.07
26859;BME280;14429;48.346;16.338;2023-08-06T01:23:33;98495.38;;;24.14;59.04
26859;BME280;14429;48.346;16.338;2023-08-06T01:26:05;98486.19;;;24.03;58.18
26859;BME280;14429;48.346;16.338;2023-08-06T01:28:40;98479.81;;;24.21;58.58
26859;BME280;14429;48.346;16.338;2023-08-06T01:31:08;98481.50;;;24.16;58.53
26859;BME280;14429;48.346;16.338;2023-08-06T01:33:38;98471.81;;;24.26;58.44
26859;BME280;14429;48.346;16.338;2023-08-06T01:36:09;98462.22;;;24.11;58.27
26859;BME280;14429;48.346;16.338;2023-08-06T01:38:34;98477.06;;;23.84;58.25
26859;BME280;14429;48.346;16.338;2023-08-06T01:41:00;98471.34;;;23.99;58.84
26859;BME280;14429;48.346;16.338;2023-08-06T01:43:25;98457.75;;;24.29;58.11
26859;BME280;14429;48.346;16.338;2023-08-06T01:45:51;98467.28;;;24.14;58.12
26859;BME280;14429;48.346;16.338;2023-08-06T01:48:16;98467.81;;;23.92;59.08
26859;BME280;14429;48.346;16.338;2023-08-06T01:50:41;98472.84;;;23.95;59.31
26859;BME280;14429;48.346;16.338;2023-08-06T01:53:08;98461.81;;;23.15;57.66
26859;BME280;14429;48.346;16.338;2023-08-06T01:55:34;98458.06;;;24.08;59.21
26859;BME280;14429;48.346;16.338;2023-08-06T01:57:59;98461.34;;;24.23;58.39
26859;BME280;14429;48.346;16.338;2023-08-06T02:00:24;98460.06;;;23.89;59.12
26859;BME280;14429;48.346;16.338;2023-08-06T02:02:50;98449.75;;;23.97;59.29
26859;BME280;14429;48.346;16.338;2023-08-06T02:05:15;98450.50;;;24.10;58.42
26859;BME280;14429;48.346;16.338;2023-08-06T02:07:41;98450.09;;;24.07;58.92
26859;BME280;14429;48.346;16.338;2023-08-06T02:10:08;98450.50;;;24.17;58.59
26859;BME280;14429;48.346;16.338;2023-08-06T02:12:33;98444.69;;;23.64;56.77
26859;BME280;14429;48.346;16.338;2023-08-06T02:14:59;98438.31;;;24.19;58.47
26859;BME280;14429;48.346;16.338;2023-08-06T02:17:24;98434.16;;;24.10;58.70
26859;BME280;14429;48.346;16.338;2023-08-06T02:19:49;98438.03;;;23.90;59.52
26859;BME280;14429;48.346;16.338;2023-08-06T02:22:15;98425.63;;;24.01;59.01
26859;BME280;14429;48.346;16.338;2023-08-06T02:24:40;98424.13;;;24.05;58.80
26859;BME280;14429;48.346;16.338;2023-08-06T02:27:07;98424.13;;;24.05;58.90
26859;BME280;14429;48.346;16.338;2023-08-06T02:29:33;98429.53;;;24.11;58.77
26859;BME280;14429;48.346;16.338;2023-08-06T02:31:58;98422.72;;;23.65;56.05
26859;BME280;14429;48.346;16.338;2023-08-06T02:34:24;98424.50;;;24.14;58.57
26859;BME280;14429;48.346;16.338;2023-08-06T02:36:50;98412.44;;;23.98;58.99
26859;BME280;14429;48.346;16.338;2023-08-06T02:39:15;98408.16;;;24.14;58.23
26859;BME280;14429;48.346;16.338;2023-08-06T02:41:40;98412.81;;;24.01;58.83
26859;BME280;14429;48.346;16.338;2023-08-06T02:44:07;98407.88;;;23.92;58.33
26859;BME280;14429;48.346;16.338;2023-08-06T02:46:32;98416.13;;;24.09;58.46
26859;BME280;14429;48.346;16.338;2023-08-06T02:48:58;98411.88;;;23.89;59.24
26859;BME280;14429;48.346;16.338;2023-08-06T02:51:23;98399.75;;;23.49;60.32
26859;BME280;14429;48.346;16.338;2023-08-06T02:53:49;98397.78;;;23.99;58.91
26859;BME280;14429;48.346;16.338;2023-08-06T02:56:14;98396.56;;;23.58;58.17
26859;BME280;14429;48.346;16.338;2023-08-06T02:58:39;98399.28;;;23.95;59.32
26859;BME280;14429;48.346;16.338;2023-08-06T03:01:06;98406.47;;;23.40;60.08
26859;BME280;14429;48.346;16.338;2023-08-06T03:03:32;98401.13;;;23.14;57.35
26859;BME280;14429;48.346;16.338;2023-08-06T03:05:58;98400.50;;;23.12;58.91
26859;BME280;14429;48.346;16.338;2023-08-06T03:08:23;98390.31;;;23.88;59.33
26859;BME280;14429;48.346;16.338;2023-08-06T03:10:49;98411.72;;;23.78;59.25
26859;BME280;14429;48.346;16.338;2023-08-06T03:13:15;98403.28;;;23.86;59.06
26859;BME280;14429;48.346;16.338;2023-08-06T03:15:41;98400.38;;;23.87;59.08
26859;BME280;14429;48.346;16.338;2023-08-06T03:18:08;98385.72;;;23.82;59.07
26859;BME280;14429;48.346;16.338;2023-08-06T03:20:33;98406.22;;;22.98;61.53
26859;BME280;14429;48.346;16.338;2023-08-06T03:22:58;98399.97;;;23.41;60.49
26859;BME280;14429;48.346;16.338;2023-08-06T03:25:24;98399.78;;;23.36;60.56
26859;BME280;14429;48.346;16.338;2023-08-06T03:27:49;98418.28;;;23.64;60.20
26859;BME280;14429;48.346;16.338;2023-08-06T03:30:15;98408.13;;;23.53;60.30
26859;BME280;14429;48.346;16.338;2023-08-06T03:32:40;98406.00;;;23.55;60.31
26859;BME280;14429;48.346;16.338;2023-08-06T03:35:07;98404.69;;;23.64;60.12
26859;BME280;14429;48.346;16.338;2023-08-06T03:37:33;98410.03;;;23.34;60.62
26859;BME280;14429;48.346;16.338;2023-08-06T03:39:58;98402.19;;;23.63;60.29
26859;BME280;14429;48.346;16.338;2023-08-06T03:42:24;98407.06;;;23.85;59.24
26859;BME280;14429;48.346;16.338;2023-08-06T03:44:49;98401.91;;;23.77;57.06
26859;BME280;14429;48.346;16.338;2023-08-06T03:47:14;98410.13;;;23.64;59.01
26859;BME280;14429;48.346;16.338;2023-08-06T03:49:40;98387.97;;;23.11;58.93
26859;BME280;14429;48.346;16.338;2023-08-06T03:52:07;98389.72;;;23.43;60.85
26859;BME280;14429;48.346;16.338;2023-08-06T03:54:32;98399.13;;;22.91;62.32
26859;BME280;14429;48.346;16.338;2023-08-06T03:56:58;98400.81;;;22.79;61.84
26859;BME280;14429;48.346;16.338;2023-08-06T03:59:23;98395.53;;;23.52;60.28
26859;BME280;14429;48.346;16.338;2023-08-06T04:01:49;98383.06;;;23.26;60.66
26859;BME280;14429;48.346;16.338;2023-08-06T04:04:14;98392.06;;;22.58;58.63
26859;BME280;14429;48.346;16.338;2023-08-06T04:06:40;98381.22;;;23.63;59.96
26859;BME280;14429;48.346;16.338;2023-08-06T04:09:06;98383.78;;;23.58;60.13
26859;BME280;14429;48.346;16.338;2023-08-06T04:11:32;98391.81;;;23.41;59.30
26859;BME280;14429;48.346;16.338;2023-08-06T04:13:57;98397.97;;;23.67;59.76
26859;BME280;14429;48.346;16.338;2023-08-06T04:16:23;98385.28;;;23.42;58.87
26859;BME280;14429;48.346;16.338;2023-08-06T04:18:48;98384.88;;;22.95;57.76
26859;BME280;14429;48.346;16.338;2023-08-06T04:21:13;98400.13;;;23.58;60.18
26859;BME280;14429;48.346;16.338;2023-08-06T04:23:39;98386.94;;;23.86;59.45
26859;BME280;14429;48.346;16.338;2023-08-06T04:26:05;98384.50;;;23.78;59.30
26859;BME280;14429;48.346;16.338;2023-08-06T04:28:31;98378.97;;;23.91;59.13
26859;BME280;14429;48.346;16.338;2023-08-06T04:30:56;98371.91;;;23.83;58.86
26859;BME280;14429;48.346;16.338;2023-08-06T04:33:22;98361.72;;;23.97;58.92
26859;BME280;14429;48.346;16.338;2023-08-06T04:35:47;98371.03;;;23.52;59.72
26859;BME280;14429;48.346;16.338;2023-08-06T04:38:12;98367.50;;;23.46;56.87
26859;BME280;14429;48.346;16.338;2023-08-06T04:40:38;98361.34;;;23.63;59.88
26859;BME280;14429;48.346;16.338;2023-08-06T04:43:05;98366.84;;;23.00;57.47
26859;BME280;14429;48.346;16.338;2023-08-06T04:45:30;98360.72;;;23.61;59.92
26859;BME280;14429;48.346;16.338;2023-08-06T04:47:55;98364.78;;;22.96;58.85
26859;BME280;14429;48.346;16.338;2023-08-06T04:50:21;98373.81;;;23.46;60.35
26859;BME280;14429;48.346;16.338;2023-08-06T04:52:46;98365.31;;;23.60;59.19
26859;BME280;14429;48.346;16.338;2023-08-06T04:55:12;98372.72;;;23.53;60.18
26859;BME280;14429;48.346;16.338;2023-08-06T04:57:37;98371.25;;;23.45;59.71
26859;BME280;14429;48.346;16.338;2023-08-06T05:00:05;98365.03;;;23.75;59.32
26859;BME280;14429;48.346;16.338;2023-08-06T05:02:31;98367.84;;;23.62;58.67
26859;BME280;14429;48.346;16.338;2023-08-06T05:04:56;98369.56;;;23.07;56.73
26859;BME280;14429;48.346;16.338;2023-08-06T05:07:21;98380.09;;;22.91;60.48
26859;BME280;14429;48.346;16.338;2023-08-06T05:09:47;98372.34;;;22.88;61.50
26859;BME280;14429;48.346;16.338;2023-08-06T05:12:12;98370.69;;;22.68;61.55
26859;BME280;14429;48.346;16.338;2023-08-06T05:14:38;98376.56;;;22.84;58.28
26859;BME280;14429;48.346;16.338;2023-08-06T05:17:05;98359.66;;;23.19;61.03
26859;BME280;14429;48.346;16.338;2023-08-06T05:19:30;98354.00;;;22.64;58.67
26859;BME280;14429;48.346;16.338;2023-08-06T05:21:56;98361.47;;;22.88;61.13
26859;BME280;14429;48.346;16.338;2023-08-06T05:24:21;98366.41;;;23.10;60.82
26859;BME280;14429;48.346;16.338;2023-08-06T05:26:46;98373.19;;;22.82;61.11
26859;BME280;14429;48.346;16.338;2023-08-06T05:29:12;98368.78;;;23.37;58.62
26859;BME280;14429;48.346;16.338;2023-08-06T05:31:37;98374.25;;;23.37;59.84
26859;BME280;14429;48.346;16.338;2023-08-06T05:34:04;98373.09;;;22.13;58.41
26859;BME280;14429;48.346;16.338;2023-08-06T05:36:29;98377.19;;;22.79;59.76
26859;BME280;14429;48.346;16.338;2023-08-06T05:38:55;98381.94;;;23.52;59.85
26859;BME280;14429;48.346;16.338;2023-08-06T05:41:20;98365.25;;;23.36;58.50
26859;BME280;14429;48.346;16.338;2023-08-06T05:43:45;98362.94;;;23.33;57.31
26859;BME280;14429;48.346;16.338;2023-08-06T05:46:11;98371.94;;;22.84;56.78
26859;BME280;14429;48.346;16.338;2023-08-06T05:48:36;98365.28;;;22.55;61.15
26859;BME280;14429;48.346;16.338;2023-08-06T05:51:03;98371.03;;;23.09;60.83
26859;BME280;14429;48.346;16.338;2023-08-06T05:53:28;98377.38;;;22.84;58.63
26859;BME280;14429;48.346;16.338;2023-08-06T05:55:54;98367.66;;;23.14;60.80
26859;BME280;14429;48.346;16.338;2023-08-06T05:58:19;98383.00;;;22.89;61.10
26859;BME280;14429;48.346;16.338;2023-08-06T06:00:45;98374.25;;;23.37;60.41
26859;BME280;14429;48.346;16.338;2023-08-06T06:03:10;98376.56;;;23.27;60.22
26859;BME280;14429;48.346;16.338;2023-08-06T06:05:37;98376.69;;;23.57;59.64
26859;BME280;14429;48.346;16.338;2023-08-06T06:08:04;98375.25;;;23.49;59.64
26859;BME280;14429;48.346;16.338;2023-08-06T06:10:29;98381.38;;;22.69;57.25
26859;BME280;14429;48.346;16.338;2023-08-06T06:12:56;98379.38;;;23.14;57.98
26859;BME280;14429;48.346;16.338;2023-08-06T06:15:21;98381.16;;;23.76;59.01
26859;BME280;14429;48.346;16.338;2023-08-06T06:17:47;98393.44;;;23.54;59.33
26859;BME280;14429;48.346;16.338;2023-08-06T06:20:12;98404.78;;;23.45;59.50
26859;BME280;14429;48.346;16.338;2023-08-06T06:22:37;98407.25;;;23.03;56.84
26859;BME280;14429;48.346;16.338;2023-08-06T06:25:05;98410.44;;;22.94;56.78
26859;BME280;14429;48.346;16.338;2023-08-06T06:27:31;98423.56;;;23.59;59.58
26859;BME280;14429;48.346;16.338;2023-08-06T06:29:56;98418.44;;;23.76;58.68
26859;BME280;14429;48.346;16.338;2023-08-06T06:32:22;98418.41;;;23.82;58.97
26859;BME280;14429;48.346;16.338;2023-08-06T06:34:47;98410.88;;;22.72;57.36
26859;BME280;14429;48.346;16.338;2023-08-06T06:37:13;98423.44;;;23.79;58.63
26859;BME280;14429;48.346;16.338;2023-08-06T06:39:38;98418.38;;;23.88;58.68
26859;BME280;14429;48.346;16.338;2023-08-06T06:42:05;98425.78;;;23.25;59.60
26859;BME280;14429;48.346;16.338;2023-08-06T06:44:31;98427.84;;;23.30;59.90
26859;BME280;14429;48.346;16.338;2023-08-06T06:46:56;98417.34;;;23.40;60.00
26859;BME280;14429;48.346;16.338;2023-08-06T06:49:22;98421.31;;;22.62;56.84
26859;BME280;14429;48.346;16.338;2023-08-06T06:51:47;98416.78;;;23.25;60.50
26859;BME280;14429;48.346;16.338;2023-08-06T06:54:12;98428.84;;;22.73;61.46
26859;BME280;14429;48.346;16.338;2023-08-06T06:56:38;98415.69;;;23.45;59.50
26859;BME280;14429;48.346;16.338;2023-08-06T06:59:05;98409.34;;;23.57;59.37
26859;BME280;14429;48.346;16.338;2023-08-06T07:01:30;98419.31;;;23.76;58.94
26859;BME280;14429;48.346;16.338;2023-08-06T07:03:55;98412.75;;;23.47;56.57
26859;BME280;14429;48.346;16.338;2023-08-06T07:06:21;98416.97;;;23.30;56.46
26859;BME280;14429;48.346;16.338;2023-08-06T07:08:46;98408.34;;;23.82;58.69
26859;BME280;14429;48.346;16.338;2023-08-06T07:11:12;98417.69;;;23.62;58.68
26859;BME280;14429;48.346;16.338;2023-08-06T07:13:37;98422.09;;;23.57;59.12
26859;BME280;14429;48.346;16.338;2023-08-06T07:16:04;98421.69;;;23.60;59.05
26859;BME280;14429;48.346;16.338;2023-08-06T07:18:29;98411.50;;;23.43;58.39
26859;BME280;14429;48.346;16.338;2023-08-06T07:20:55;98405.16;;;23.55;59.15
26859;BME280;14429;48.346;16.338;2023-08-06T07:23:22;98406.28;;;23.78;58.77
26859;BME280;14429;48.346;16.338;2023-08-06T07:25:48;98406.66;;;23.88;58.23
26859;BME280;14429;48.346;16.338;2023-08-06T07:28:14;98406.91;;;23.80;58.18
26859;BME280;14429;48.346;16.338;2023-08-06T07:30:39;98417.94;;;23.54;59.60
26859;BME280;14429;48.346;16.338;2023-08-06T07:33:06;98411.69;;;23.84;58.40
26859;BME280;14429;48.346;16.338;2023-08-06T07:35:31;98402.06;;;23.82;58.25
26859;BME280;14429;48.346;16.338;2023-08-06T07:37:57;98402.38;;;23.12;57.71
26859;BME280;14429;48.346;16.338;2023-08-06T07:40:22;98404.56;;;22.91;57.77
26859;BME280;14429;48.346;16.338;2023-08-06T07:42:48;98413.56;;;23.53;59.69
26859;BME280;14429;48.346;16.338;2023-08-06T07:45:14;98403.81;;;23.70;59.10
26859;BME280;14429;48.346;16.338;2023-08-06T07:47:39;98401.63;;;23.85;58.63
26859;BME280;14429;48.346;16.338;2023-08-06T07:50:07;98398.25;;;23.89;58.35
26859;BME280;14429;48.346;16.338;2023-08-06T07:52:32;98402.22;;;23.56;59.08
26859;BME280;14429;48.346;16.338;2023-08-06T07:54:58;98401.47;;;23.80;58.35
26859;BME280;14429;48.346;16.338;2023-08-06T07:57:23;98398.47;;;23.88;58.26
26859;BME280;14429;48.346;16.338;2023-08-06T07:59:49;98397.75;;;23.68;58.01
26859;BME280;14429;48.346;16.338;2023-08-06T08:02:14;98393.72;;;23.77;58.61
26859;BME280;14429;48.346;16.338;2023-08-06T08:04:39;98382.00;;;23.77;58.55
26859;BME280;14429;48.346;16.338;2023-08-06T08:07:06;98389.44;;;23.57;57.58
26859;BME280;14429;48.346;16.338;2023-08-06T08:09:32;98381.06;;;23.89;58.34
26859;BME280;14429;48.346;16.338;2023-08-06T08:11:57;98376.75;;;23.75;58.27
26859;BME280;14429;48.346;16.338;2023-08-06T08:14:23;98383.88;;;23.33;56.80
26859;BME280;14429;48.346;16.338;2023-08-06T08:16:48;98398.22;;;23.65;58.83
26859;BME280;14429;48.346;16.338;2023-08-06T08:19:14;98396.81;;;23.44;57.81
26859;BME280;14429;48.346;16.338;2023-08-06T08:21:39;98407.66;;;23.56;59.19
26859;BME280;14429;48.346;16.338;2023-08-06T08:24:07;98407.50;;;23.82;58.38
26859;BME280;14429;48.346;16.338;2023-08-06T08:26:33;98401.22;;;23.51;56.69
26859;BME280;14429;48.346;16.338;2023-08-06T08:28:58;98406.09;;;23.80;58.52
26859;BME280;14429;48.346;16.338;2023-08-06T08:31:24;98411.00;;;23.58;58.70
26859;BME280;14429;48.346;16.338;2023-08-06T08:33:49;98406.97;;;23.67;59.00
26859;BME280;14429;48.346;16.338;2023-08-06T08:36:14;98398.97;;;23.29;57.20
26859;BME280;14429;48.346;16.338;2023-08-06T08:38:40;98399.13;;;23.83;58.18
26859;BME280;14429;48.346;16.338;2023-08-06T08:41:09;98394.13;;;23.80;58.49
26859;BME280;14429;48.346;16.338;2023-08-06T08:43:35;98390.38;;;23.75;58.37
26859;BME280;14429;48.346;16.338;2023-08-06T08:46:02;98385.38;;;23.72;58.60
26859;BME280;14429;48.346;16.338;2023-08-06T08:48:29;98397.84;;;23.86;58.08
26859;BME280;14429;48.346;16.338;2023-08-06T08:50:55;98414.44;;;23.78;58.75
26859;BME280;14429;48.346;16.338;2023-08-06T08:53:21;98415.25;;;23.48;55.86
26859;BME280;14429;48.346;16.338;2023-08-06T08:55:47;98411.88;;;23.52;58.18
26859;BME280;14429;48.346;16.338;2023-08-06T08:58:15;98398.97;;;23.29;58.78
26859;BME280;14429;48.346;16.338;2023-08-06T09:00:41;98394.34;;;23.36;57.39
26859;BME280;14429;48.346;16.338;2023-08-06T09:03:07;98398.81;;;23.67;58.70
26859;BME280;14429;48.346;16.338;2023-08-06T09:05:33;98400.84;;;23.78;58.45
26859;BME280;14429;48.346;16.338;2023-08-06T09:08:02;98393.00;;;23.57;58.07
26859;BME280;14429;48.346;16.338;2023-08-06T09:10:28;98391.09;;;23.08;58.46
26859;BME280;14429;48.346;16.338;2023-08-06T09:12:55;98399.88;;;23.66;58.54
26859;BME280;14429;48.346;16.338;2023-08-06T09:15:23;98395.28;;;23.17;58.45
26859;BME280;14429;48.346;16.338;2023-08-06T09:17:49;98401.88;;;23.34;58.41
26859;BME280;14429;48.346;16.338;2023-08-06T09:20:15;98419.34;;;23.63;58.76
26859;BME280;14429;48.346;16.338;2023-08-06T09:22:41;98413.25;;;23.18;57.86
26859;BME280;14429;48.346;16.338;2023-08-06T09:25:07;98415.97;;;23.25;59.27
26859;BME280;14429;48.346;16.338;2023-08-06T09:27:33;98423.53;;;23.66;58.46
26859;BME280;14429;48.346;16.338;2023-08-06T09:29:58;98420.47;;;23.86;58.02
26859;BME280;14429;48.346;16.338;2023-08-06T09:32:25;98423.84;;;23.82;57.61
26859;BME280;14429;48.346;16.338;2023-08-06T09:34:55;98428.59;;;23.93;57.65
26859;BME280;14429;48.346;16.338;2023-08-06T09:37:21;98425.59;;;23.70;58.37
26859;BME280;14429;48.346;16.338;2023-08-06T09:39:46;98416.72;;;23.38;58.79
26859;BME280;14429;48.346;16.338;2023-08-06T09:42:15;98409.38;;;23.45;55.29
26859;BME280;14429;48.346;16.338;2023-08-06T09:44:40;98417.69;;;23.62;58.48
26859;BME280;14429;48.346;16.338;2023-08-06T09:47:06;98423.69;;;23.77;58.48
26859;BME280;14429;48.346;16.338;2023-08-06T09:49:42;98421.00;;;23.71;58.41
26859;BME280;14429;48.346;16.338;2023-08-06T09:52:11;98421.06;;;23.58;57.44
26859;BME280;14429;48.346;16.338;2023-08-06T09:54:37;98427.34;;;23.02;56.26
26859;BME280;14429;48.346;16.338;2023-08-06T09:57:03;98419.31;;;23.76;58.09
26859;BME280;14429;48.346;16.338;2023-08-06T09:59:29;98420.06;;;23.83;58.03
26859;BME280;14429;48.346;16.338;2023-08-06T10:01:54;98415.41;;;23.90;57.86
26859;BME280;14429;48.346;16.338;2023-08-06T10:04:20;98411.25;;;23.87;57.84
26859;BME280;14429;48.346;16.338;2023-08-06T10:06:47;98410.69;;;23.36;54.60
26859;BME280;14429;48.346;16.338;2023-08-06T10:09:13;98416.03;;;23.61;56.65
26859;BME280;14429;48.346;16.338;2023-08-06T10:11:39;98428.97;;;23.72;57.56
26859;BME280;14429;48.346;16.338;2023-08-06T10:14:08;98427.28;;;23.71;58.03
26859;BME280;14429;48.346;16.338;2023-08-06T10:16:34;98426.31;;;23.53;58.49
26859;BME280;14429;48.346;16.338;2023-08-06T10:19:01;98427.84;;;23.30;58.71
26859;BME280;14429;48.346;16.338;2023-08-06T10:21:26;98436.53;;;23.64;58.45
26859;BME280;14429;48.346;16.338;2023-08-06T10:23:54;98439.47;;;23.69;58.28
26859;BME280;14429;48.346;16.338;2023-08-06T10:26:20;98442.53;;;23.79;57.37
26859;BME280;14429;48.346;16.338;2023-08-06T10:28:46;98447.13;;;23.35;58.64
26859;BME280;14429;48.346;16.338;2023-08-06T10:31:11;98443.72;;;23.46;55.01
26859;BME280;14429;48.346;16.338;2023-08-06T10:33:41;98459.91;;;23.78;58.26
26859;BME280;14429;48.346;16.338;2023-08-06T10:36:08;98447.41;;;23.70;58.10
26859;BME280;14429;48.346;16.338;2023-08-06T10:38:34;98450.94;;;23.21;58.53
26859;BME280;14429;48.346;16.338;2023-08-06T10:41:03;98452.78;;;23.27;57.71
26859;BME280;14429;48.346;16.338;2023-08-06T10:43:30;98455.72;;;23.75;57.95
26859;BME280;14429;48.346;16.338;2023-08-06T10:45:56;98449.94;;;23.65;55.11
26859;BME280;14429;48.346;16.338;2023-08-06T10:48:34;98457.06;;;23.66;57.95
26859;BME280;14429;48.346;16.338;2023-08-06T10:51:00;98463.59;;;23.52;55.20
26859;BME280;14429;48.346;16.338;2023-08-06T10:53:26;98457.38;;;23.82;57.67
26859;BME280;14429;48.346;16.338;2023-08-06T10:55:51;98459.59;;;23.61;57.89
26859;BME280;14429;48.346;16.338;2023-08-06T10:58:18;98463.72;;;23.70;58.16
26859;BME280;14429;48.346;16.338;2023-08-06T11:00:44;98462.81;;;23.82;57.93
26859;BME280;14429;48.346;16.338;2023-08-06T11:03:09;98469.09;;;23.83;57.80
26859;BME280;14429;48.346;16.338;2023-08-06T11:05:35;98466.56;;;23.88;56.75
26859;BME280;14429;48.346;16.338;2023-08-06T11:08:01;98455.84;;;23.56;54.62
26859;BME280;14429;48.346;16.338;2023-08-06T11:10:26;98466.19;;;23.78;58.05
26859;BME280;14429;48.346;16.338;2023-08-06T11:12:52;98471.59;;;23.91;57.53
26859;BME280;14429;48.346;16.338;2023-08-06T11:15:20;98473.25;;;23.92;57.45
26859;BME280;14429;48.346;16.338;2023-08-06T11:17:46;98479.50;;;23.99;57.24
26859;BME280;14429;48.346;16.338;2023-08-06T11:20:11;98470.47;;;22.93;56.77
26859;BME280;14429;48.346;16.338;2023-08-06T11:22:37;98474.19;;;23.73;57.96
26859;BME280;14429;48.346;16.338;2023-08-06T11:25:03;98472.97;;;23.63;57.87
26859;BME280;14429;48.346;16.338;2023-08-06T11:27:29;98479.66;;;23.73;57.76
26859;BME280;14429;48.346;16.338;2023-08-06T11:29:54;98477.19;;;23.59;57.54
26859;BME280;14429;48.346;16.338;2023-08-06T11:32:21;98471.78;;;23.52;55.30
26859;BME280;14429;48.346;16.338;2023-08-06T11:34:46;98473.06;;;23.31;55.77
26859;BME280;14429;48.346;16.338;2023-08-06T11:37:13;98475.44;;;23.77;58.01
26859;BME280;14429;48.346;16.338;2023-08-06T11:39:38;98480.16;;;23.57;55.28
26859;BME280;14429;48.346;16.338;2023-08-06T11:42:09;98485.59;;;23.57;58.49
26859;BME280;14429;48.346;16.338;2023-08-06T11:44:36;98491.00;;;23.64;58.10
26859;BME280;14429;48.346;16.338;2023-08-06T11:47:03;98493.00;;;23.87;57.52
26859;BME280;14429;48.346;16.338;2023-08-06T11:49:40;98495.97;;;23.80;56.91
26859;BME280;14429;48.346;16.338;2023-08-06T11:52:17;98492.59;;;23.84;57.00
26859;BME280;14429;48.346;16.338;2023-08-06T11:54:43;98496.72;;;23.93;57.46
26859;BME280;14429;48.346;16.338;2023-08-06T11:57:08;98494.84;;;23.87;57.58
26859;BME280;14429;48.346;16.338;2023-08-06T11:59:34;98490.88;;;23.89;57.38
26859;BME280;14429;48.346;16.338;2023-08-06T12:02:01;98502.34;;;23.98;57.21
26859;BME280;14429;48.346;16.338;2023-08-06T12:04:26;98503.81;;;24.00;57.29
26859;BME280;14429;48.346;16.338;2023-08-06T12:06:53;98493.41;;;23.84;56.94
26859;BME280;14429;48.346;16.338;2023-08-06T12:09:18;98499.84;;;23.96;57.41
26859;BME280;14429;48.346;16.338;2023-08-06T12:11:44;98494.63;;;23.95;57.00
26859;BME280;14429;48.346;16.338;2023-08-06T12:14:09;98503.00;;;23.93;57.38
26859;BME280;14429;48.346;16.338;2023-08-06T12:16:35;98496.72;;;23.93;57.35
26859;BME280;14429;48.346;16.338;2023-08-06T12:19:01;98504.28;;;23.91;57.18
26859;BME280;14429;48.346;16.338;2023-08-06T12:21:26;98500.28;;;23.93;57.48
26859;BME280;14429;48.346;16.338;2023-08-06T12:23:53;98505.53;;;23.95;57.21
26859;BME280;14429;48.346;16.338;2023-08-06T12:26:18;98508.41;;;24.00;56.91
26859;BME280;14429;48.346;16.338;2023-08-06T12:28:44;98500.84;;;24.02;57.15
26859;BME280;14429;48.346;16.338;2023-08-06T12:31:09;98506.75;;;23.99;56.95
26859;BME280;14429;48.346;16.338;2023-08-06T12:33:35;98508.44;;;23.93;57.33
26859;BME280;14429;48.346;16.338;2023-08-06T12:36:00;98505.53;;;23.95;57.03
26859;BME280;14429;48.346;16.338;2023-08-06T12:38:25;98521.41;;;23.98;57.15
26859;BME280;14429;48.346;16.338;2023-08-06T12:40:52;98524.81;;;23.87;57.44
26859;BME280;14429;48.346;16.338;2023-08-06T12:43:18;98525.03;;;23.92;57.00